Flight Track Log - Related Links

Times and Time Zones

All times are in EDT time to prevent confusion due to time zone crossing. See the DAL105 flight status page for this flight to view local times or setup timezone preferences in your user account.

Time Position Orientation Groundspeed Altitude Reporting Facility
EDT Latitude Longitude Course Direction KTS MPH feet Rate Location/Type
Thu 06:54:17 PM 28.4167 -81.3000 156° South 164 189 600  Level Orlando TRACON
Thu 06:54:59 PM 28.3833 -81.2833 106° East 184 212 2,100 2,412 Climbing Orlando TRACON
Thu 06:55:59 PM 28.3667 -81.2167 66° East 261 300 4,700 3,000 Climbing Orlando TRACON
Thu 06:56:59 PM 28.4000 -81.1333 351° North 287 330 8,100 2,571 Climbing Orlando TRACON
Thu 06:59:22 PM 28.5953 -81.1689 338° Northwest 331 381 13,400 2,382 Climbing Jacksonville Center
Thu 07:00:23 PM 28.6961 -81.2144 340° North 365 420 16,200 2,650 Climbing Jacksonville Center
Thu 07:01:22 PM 28.8011 -81.2578 338° Northwest 378 435 18,700 2,420 Climbing Jacksonville Center
Thu 07:02:22 PM 28.9061 -81.3058 338° Northwest 398 458 21,000 2,200 Climbing Jacksonville Center
Thu 07:03:22 PM 29.0172 -81.3564 339° North 418 481 23,100 1,983 Climbing Jacksonville Center
Thu 07:04:23 PM 29.1283 -81.4044 339° North 423 487 25,000 1,800 Climbing Jacksonville Center
Thu 07:05:22 PM 29.2292 -81.4483 338° Northwest 423 487 26,700 1,513 Climbing Jacksonville Center
Thu 07:06:22 PM 29.3467 -81.5036 339° North 441 507 28,000 1,300 Climbing Jacksonville Center
Thu 07:07:22 PM 29.4683 -81.5567 339° North 454 522 29,300 1,600 Climbing Jacksonville Center
Thu 07:08:22 PM 29.5878 -81.6100 338° Northwest 460 529 31,200 1,750 Climbing Jacksonville Center
Thu 07:09:22 PM 29.7075 -81.6658 339° North 460 529 32,800 1,550 Climbing Jacksonville Center
Thu 07:10:22 PM 29.8228 -81.7172 339° North 453 521 34,300 1,091 Climbing Jacksonville Center
Thu 07:11:23 PM 29.9422 -81.7708 340° North 453 521 35,000 347 Climbing Jacksonville Center
Thu 07:12:23 PM 30.0594 -81.8197 338° Northwest 453 521 35,000  Level Jacksonville Center
Thu 07:13:23 PM 30.1728 -81.8714 342° North 453 521 35,000  Level Jacksonville Center
Thu 07:14:23 PM 30.2942 -81.9158 341° North 453 521 35,000  Level Jacksonville Center
Thu 07:15:23 PM 30.4156 -81.9653 341° North 453 521 35,000  Level Jacksonville Center
Thu 07:16:23 PM 30.5350 -82.0122 340° North 448 516 35,000  Level Jacksonville Center
Thu 07:17:23 PM 30.6647 -82.0667 341° North 448 516 35,000  Level Jacksonville Center
Thu 07:18:23 PM 30.7842 -82.1139 342° North 448 516 35,000  Level Jacksonville Center
Thu 07:19:23 PM 30.9011 -82.1589 341° North 448 516 35,000  Level Jacksonville Center
Thu 07:20:23 PM 31.0206 -82.2064 341° North 448 516 35,000  Level Jacksonville Center
Thu 07:21:23 PM 31.1356 -82.2519 340° North 448 516 35,000  Level Jacksonville Center
Thu 07:22:23 PM 31.2528 -82.3019 343° North 448 516 35,000  Level Jacksonville Center
Thu 07:23:23 PM 31.3697 -82.3428 341° North 448 516 35,000  Level Jacksonville Center
Thu 07:24:23 PM 31.4869 -82.3908 341° North 448 516 35,000  Level Jacksonville Center
Thu 07:26:28 PM 31.7244 -82.4883 342° North 447 514 35,000  Level Atlanta Center
Thu 07:27:29 PM 31.8397 -82.5331 333° Northwest 447 514 35,000  Level Atlanta Center
Thu 07:28:28 PM 31.9511 -82.5997 322° Northwest 447 514 35,000  Level Atlanta Center
Thu 07:29:28 PM 32.0461 -82.6886 321° Northwest 439 505 35,000 -400 Level Atlanta Center
Thu 07:30:28 PM 32.1408 -82.7781 322° Northwest 439 505 34,200 -800 Descending Atlanta Center
Thu 07:31:28 PM 32.2336 -82.8650 322° Northwest 434 499 33,400 -900 Descending Atlanta Center
Thu 07:32:28 PM 32.3283 -82.9525 321° Northwest 434 499 32,400 -950 Descending Atlanta Center
Thu 07:33:28 PM 32.4189 -83.0397 321° Northwest 427 491 31,500 -1,000 Descending Atlanta Center
Thu 07:34:28 PM 32.5114 -83.1300 322° Northwest 427 491 30,400 -1,050 Descending Atlanta Center
Thu 07:35:28 PM 32.6081 -83.2203 320° Northwest 432 497 29,400 -1,800 Descending Atlanta Center
Thu 07:36:28 PM 32.7006 -83.3131 322° Northwest 432 497 26,800 -2,650 Descending Atlanta Center
Thu 07:37:28 PM 32.7906 -83.3964 321° Northwest 427 491 24,100 -2,650 Descending Atlanta Center
Thu 07:38:28 PM 32.8786 -83.4822 321° Northwest 417 480 21,500 -2,550 Descending Atlanta Center
Thu 07:39:28 PM 32.9647 -83.5658 320° Northwest 411 473 19,000 -2,450 Descending Atlanta Center
Thu 07:40:28 PM 33.0464 -83.6472 323° Northwest 390 449 16,600 -2,250 Descending Atlanta Center
Thu 07:41:28 PM 33.1281 -83.7214 320° Northwest 375 432 14,500 -1,300 Descending Atlanta Center
Thu 07:42:28 PM 33.2033 -83.7981 312° West 349 402 14,000 -800 Descending Atlanta Center
Thu 07:43:28 PM 33.2639 -83.8797 306° West 321 369 12,900 -1,500 Descending Atlanta Center
Thu 07:44:28 PM 33.3183 -83.9692 310° West 328 377 11,000 -950 Descending Atlanta Center
Thu 07:45:28 PM 33.3767 -84.0536 309° West 328 377 11,000  Level Atlanta Center
Thu 07:46:28 PM 33.4331 -84.1383 308° West 328 377 11,000  Level Atlanta Center
Thu 07:47:28 PM 33.4872 -84.2206 307° West 328 377 11,000  Level Atlanta Center
Thu 07:48:28 PM 33.5353 -84.2981 277° West 304 350 11,000 -400 Level Atlanta Center
Thu 07:49:28 PM 33.5453 -84.3953 270° West 283 326 10,200 -1,000 Descending Atlanta Center
Thu 07:50:28 PM 33.5450 -84.4800 272° West 283 326 9,000 -2,066 Descending Atlanta Center
Thu 07:52:31 PM 33.5500 -84.6833 270° West 276 318 3,900 -1,714 Descending Atlanta TRACON
Thu 07:53:37 PM 33.5500 -84.7667 360° North 244 281 3,600 -143 Descending Atlanta TRACON
Thu 07:54:37 PM 33.6000 -84.7667 73° East 228 262 3,600  Level Atlanta TRACON
Thu 07:55:37 PM 33.6167 -84.7000 90° East 204 235 3,600  Level Atlanta TRACON
Thu 07:56:32 PM 33.6167 -84.6500 90° East 178 205 3,600 -157 Level Atlanta TRACON
Thu 07:57:32 PM 33.6167 -84.5833 90° East 182 209 3,300 -600 Descending Atlanta TRACON
Thu 07:58:32 PM 33.6167 -84.5333 90° East 180 207 2,400 -850 Descending Atlanta TRACON
Thu 07:59:32 PM 33.6167 -84.4833 90° East 135 155 1,600 -800 Descending Atlanta TRACON

Login

Don't have an account? Register now (free) for customized features, flight alerts, and more!